sensor_id;sensor_type;location;lat;lon;timestamp;P1;durP1;ratioP1;P2;durP2;ratioP2
59659;SDS011;45534;52.690;6.268;2022-08-24T00:00:11;54.72;;;49.67;;
59659;SDS011;45534;52.690;6.268;2022-08-24T00:02:41;55.65;;;50.83;;
59659;SDS011;45534;52.690;6.268;2022-08-24T00:05:07;52.30;;;47.92;;
59659;SDS011;45534;52.690;6.268;2022-08-24T00:07:34;57.05;;;51.38;;
59659;SDS011;45534;52.690;6.268;2022-08-24T00:10:00;55.80;;;51.38;;
59659;SDS011;45534;52.690;6.268;2022-08-24T00:12:27;56.83;;;51.75;;
59659;SDS011;45534;52.690;6.268;2022-08-24T00:14:53;26.92;;;21.33;;
59659;SDS011;45534;52.690;6.268;2022-08-24T00:17:20;56.03;;;51.03;;
59659;SDS011;45534;52.690;6.268;2022-08-24T00:19:46;52.45;;;23.75;;
59659;SDS011;45534;52.690;6.268;2022-08-24T00:22:12;64.22;;;59.08;;
59659;SDS011;45534;52.690;6.268;2022-08-24T00:24:37;33.58;;;23.55;;
59659;SDS011;45534;52.690;6.268;2022-08-24T00:27:04;66.07;;;59.75;;
59659;SDS011;45534;52.690;6.268;2022-08-24T00:29:31;31.92;;;24.45;;
59659;SDS011;45534;52.690;6.268;2022-08-24T00:31:57;28.35;;;22.83;;
59659;SDS011;45534;52.690;6.268;2022-08-24T00:34:23;65.90;;;59.80;;
59659;SDS011;45534;52.690;6.268;2022-08-24T00:36:50;30.17;;;22.08;;
59659;SDS011;45534;52.690;6.268;2022-08-24T00:39:16;23.70;;;19.30;;
59659;SDS011;45534;52.690;6.268;2022-08-24T00:41:43;48.78;;;44.80;;
59659;SDS011;45534;52.690;6.268;2022-08-24T00:44:10;62.35;;;57.22;;
59659;SDS011;45534;52.690;6.268;2022-08-24T00:49:09;51.53;;;47.35;;
59659;SDS011;45534;52.690;6.268;2022-08-24T00:51:46;57.28;;;52.47;;
59659;SDS011;45534;52.690;6.268;2022-08-24T00:54:19;61.70;;;55.22;;
59659;SDS011;45534;52.690;6.268;2022-08-24T00:56:50;56.92;;;51.70;;
59659;SDS011;45534;52.690;6.268;2022-08-24T00:59:20;33.28;;;24.05;;
59659;SDS011;45534;52.690;6.268;2022-08-24T01:01:50;27.00;;;22.55;;
59659;SDS011;45534;52.690;6.268;2022-08-24T01:04:19;26.58;;;20.25;;
59659;SDS011;45534;52.690;6.268;2022-08-24T01:06:54;29.17;;;22.63;;
59659;SDS011;45534;52.690;6.268;2022-08-24T01:09:20;32.55;;;24.65;;
59659;SDS011;45534;52.690;6.268;2022-08-24T01:11:46;24.67;;;20.63;;
59659;SDS011;45534;52.690;6.268;2022-08-24T01:14:14;67.25;;;61.28;;
59659;SDS011;45534;52.690;6.268;2022-08-24T01:16:41;28.27;;;23.55;;
59659;SDS011;45534;52.690;6.268;2022-08-24T01:19:32;31.52;;;21.88;;
59659;SDS011;45534;52.690;6.268;2022-08-24T01:25:01;26.75;;;21.38;;
59659;SDS011;45534;52.690;6.268;2022-08-24T01:27:27;62.05;;;56.90;;
59659;SDS011;45534;52.690;6.268;2022-08-24T01:29:53;63.70;;;58.20;;
59659;SDS011;45534;52.690;6.268;2022-08-24T01:32:22;67.72;;;61.72;;
59659;SDS011;45534;52.690;6.268;2022-08-24T01:34:48;59.75;;;54.78;;
59659;SDS011;45534;52.690;6.268;2022-08-24T01:37:14;27.05;;;21.95;;
59659;SDS011;45534;52.690;6.268;2022-08-24T01:39:43;26.70;;;23.27;;
59659;SDS011;45534;52.690;6.268;2022-08-24T01:42:12;44.92;;;24.05;;
59659;SDS011;45534;52.690;6.268;2022-08-24T01:44:39;62.95;;;57.70;;
59659;SDS011;45534;52.690;6.268;2022-08-24T01:47:06;26.63;;;23.50;;
59659;SDS011;45534;52.690;6.268;2022-08-24T01:49:34;25.17;;;20.23;;
59659;SDS011;45534;52.690;6.268;2022-08-24T01:52:04;23.48;;;19.50;;
59659;SDS011;45534;52.690;6.268;2022-08-24T01:54:32;56.05;;;51.72;;
59659;SDS011;45534;52.690;6.268;2022-08-24T01:56:58;62.58;;;57.33;;
59659;SDS011;45534;52.690;6.268;2022-08-24T01:59:24;62.03;;;57.00;;
59659;SDS011;45534;52.690;6.268;2022-08-24T02:01:52;69.53;;;63.80;;
59659;SDS011;45534;52.690;6.268;2022-08-24T02:04:22;29.50;;;23.60;;
59659;SDS011;45534;52.690;6.268;2022-08-24T02:06:48;27.90;;;21.77;;
59659;SDS011;45534;52.690;6.268;2022-08-24T02:09:13;68.28;;;62.63;;
59659;SDS011;45534;52.690;6.268;2022-08-24T02:11:40;70.88;;;64.93;;
59659;SDS011;45534;52.690;6.268;2022-08-24T02:14:07;73.25;;;67.15;;
59659;SDS011;45534;52.690;6.268;2022-08-24T02:16:32;71.53;;;65.13;;
59659;SDS011;45534;52.690;6.268;2022-08-24T02:18:58;78.85;;;71.22;;
59659;SDS011;45534;52.690;6.268;2022-08-24T02:21:24;29.65;;;25.52;;
59659;SDS011;45534;52.690;6.268;2022-08-24T02:23:50;76.45;;;69.25;;
59659;SDS011;45534;52.690;6.268;2022-08-24T02:26:16;36.47;;;29.70;;
59659;SDS011;45534;52.690;6.268;2022-08-24T02:28:42;34.17;;;26.42;;
59659;SDS011;45534;52.690;6.268;2022-08-24T02:31:09;36.63;;;24.63;;
59659;SDS011;45534;52.690;6.268;2022-08-24T02:33:36;71.13;;;64.63;;
59659;SDS011;45534;52.690;6.268;2022-08-24T02:36:03;27.33;;;22.55;;
59659;SDS011;45534;52.690;6.268;2022-08-24T02:38:30;29.05;;;22.58;;
59659;SDS011;45534;52.690;6.268;2022-08-24T02:40:56;72.97;;;67.10;;
59659;SDS011;45534;52.690;6.268;2022-08-24T02:43:22;21.13;;;16.95;;
59659;SDS011;45534;52.690;6.268;2022-08-24T02:45:48;23.67;;;17.48;;
59659;SDS011;45534;52.690;6.268;2022-08-24T02:48:15;74.82;;;68.53;;
59659;SDS011;45534;52.690;6.268;2022-08-24T02:50:43;72.03;;;65.25;;
59659;SDS011;45534;52.690;6.268;2022-08-24T02:53:11;30.15;;;20.30;;
59659;SDS011;45534;52.690;6.268;2022-08-24T02:55:40;23.98;;;19.65;;
59659;SDS011;45534;52.690;6.268;2022-08-24T02:58:07;46.88;;;42.97;;
59659;SDS011;45534;52.690;6.268;2022-08-24T03:00:34;22.20;;;19.02;;
59659;SDS011;45534;52.690;6.268;2022-08-24T03:03:01;22.02;;;17.60;;
59659;SDS011;45534;52.690;6.268;2022-08-24T03:05:27;20.60;;;16.25;;
59659;SDS011;45534;52.690;6.268;2022-08-24T03:07:52;18.85;;;14.77;;
59659;SDS011;45534;52.690;6.268;2022-08-24T03:10:19;19.35;;;16.67;;
59659;SDS011;45534;52.690;6.268;2022-08-24T03:12:45;19.42;;;15.45;;
59659;SDS011;45534;52.690;6.268;2022-08-24T03:15:11;19.45;;;16.75;;
59659;SDS011;45534;52.690;6.268;2022-08-24T03:17:38;20.85;;;16.83;;
59659;SDS011;45534;52.690;6.268;2022-08-24T03:20:05;27.35;;;20.05;;
59659;SDS011;45534;52.690;6.268;2022-08-24T03:22:34;24.25;;;19.52;;
59659;SDS011;45534;52.690;6.268;2022-08-24T03:25:00;28.05;;;20.95;;
59659;SDS011;45534;52.690;6.268;2022-08-24T03:27:26;63.20;;;57.85;;
59659;SDS011;45534;52.690;6.268;2022-08-24T03:29:51;26.42;;;21.20;;
59659;SDS011;45534;52.690;6.268;2022-08-24T03:32:17;67.35;;;61.67;;
59659;SDS011;45534;52.690;6.268;2022-08-24T03:34:43;34.95;;;25.75;;
59659;SDS011;45534;52.690;6.268;2022-08-24T03:37:09;30.25;;;24.92;;
59659;SDS011;45534;52.690;6.268;2022-08-24T03:39:34;36.33;;;25.48;;
59659;SDS011;45534;52.690;6.268;2022-08-24T03:42:00;36.63;;;27.52;;
59659;SDS011;45534;52.690;6.268;2022-08-24T03:44:26;33.40;;;26.13;;
59659;SDS011;45534;52.690;6.268;2022-08-24T03:46:51;76.50;;;70.20;;
59659;SDS011;45534;52.690;6.268;2022-08-24T03:49:18;33.20;;;27.55;;
59659;SDS011;45534;52.690;6.268;2022-08-24T03:51:44;30.13;;;24.60;;
59659;SDS011;45534;52.690;6.268;2022-08-24T03:54:11;75.50;;;68.80;;
59659;SDS011;45534;52.690;6.268;2022-08-24T03:56:38;32.45;;;27.13;;
59659;SDS011;45534;52.690;6.268;2022-08-24T03:59:06;32.47;;;25.27;;
59659;SDS011;45534;52.690;6.268;2022-08-24T04:01:34;76.00;;;69.53;;
59659;SDS011;45534;52.690;6.268;2022-08-24T04:04:00;35.10;;;27.33;;
59659;SDS011;45534;52.690;6.268;2022-08-24T04:06:26;35.78;;;26.40;;
59659;SDS011;45534;52.690;6.268;2022-08-24T04:08:52;79.57;;;73.05;;
59659;SDS011;45534;52.690;6.268;2022-08-24T04:11:22;83.90;;;76.43;;
59659;SDS011;45534;52.690;6.268;2022-08-24T04:16:18;35.75;;;27.92;;
59659;SDS011;45534;52.690;6.268;2022-08-24T04:18:45;43.88;;;28.08;;
59659;SDS011;45534;52.690;6.268;2022-08-24T04:21:22;33.03;;;26.67;;
59659;SDS011;45534;52.690;6.268;2022-08-24T04:23:50;35.15;;;28.65;;
59659;SDS011;45534;52.690;6.268;2022-08-24T04:26:17;79.43;;;72.78;;
59659;SDS011;45534;52.690;6.268;2022-08-24T04:28:44;35.45;;;26.73;;
59659;SDS011;45534;52.690;6.268;2022-08-24T04:31:09;30.58;;;24.67;;
59659;SDS011;45534;52.690;6.268;2022-08-24T04:33:35;22.45;;;18.30;;
59659;SDS011;45534;52.690;6.268;2022-08-24T04:36:04;20.67;;;17.50;;
59659;SDS011;45534;52.690;6.268;2022-08-24T04:38:32;23.42;;;20.83;;
59659;SDS011;45534;52.690;6.268;2022-08-24T04:40:59;17.35;;;13.25;;
59659;SDS011;45534;52.690;6.268;2022-08-24T04:43:27;16.52;;;13.18;;
59659;SDS011;45534;52.690;6.268;2022-08-24T04:45:52;21.25;;;16.10;;
59659;SDS011;45534;52.690;6.268;2022-08-24T04:48:18;20.88;;;16.08;;
59659;SDS011;45534;52.690;6.268;2022-08-24T04:50:44;58.17;;;53.22;;
59659;SDS011;45534;52.690;6.268;2022-08-24T04:53:11;51.42;;;47.40;;
59659;SDS011;45534;52.690;6.268;2022-08-24T04:55:44;21.88;;;19.00;;
59659;SDS011;45534;52.690;6.268;2022-08-24T04:58:13;22.90;;;16.48;;
59659;SDS011;45534;52.690;6.268;2022-08-24T05:00:40;21.73;;;16.38;;
59659;SDS011;45534;52.690;6.268;2022-08-24T05:03:06;50.70;;;46.65;;
59659;SDS011;45534;52.690;6.268;2022-08-24T05:05:32;22.42;;;18.30;;
59659;SDS011;45534;52.690;6.268;2022-08-24T05:07:58;25.13;;;16.25;;
59659;SDS011;45534;52.690;6.268;2022-08-24T05:10:24;41.97;;;38.75;;
59659;SDS011;45534;52.690;6.268;2022-08-24T05:12:50;21.05;;;14.93;;
59659;SDS011;45534;52.690;6.268;2022-08-24T05:15:16;22.45;;;18.63;;
59659;SDS011;45534;52.690;6.268;2022-08-24T05:17:41;19.20;;;16.60;;
59659;SDS011;45534;52.690;6.268;2022-08-24T05:20:08;22.08;;;18.52;;
59659;SDS011;45534;52.690;6.268;2022-08-24T05:22:35;27.85;;;20.45;;
59659;SDS011;45534;52.690;6.268;2022-08-24T05:25:01;30.73;;;20.30;;
59659;SDS011;45534;52.690;6.268;2022-08-24T05:27:27;25.25;;;21.83;;
59659;SDS011;45534;52.690;6.268;2022-08-24T05:29:53;66.53;;;61.15;;
59659;SDS011;45534;52.690;6.268;2022-08-24T05:32:19;27.63;;;22.83;;
59659;SDS011;45534;52.690;6.268;2022-08-24T05:34:46;66.68;;;61.10;;
59659;SDS011;45534;52.690;6.268;2022-08-24T05:37:12;30.20;;;24.10;;
59659;SDS011;45534;52.690;6.268;2022-08-24T05:39:38;29.85;;;23.42;;
59659;SDS011;45534;52.690;6.268;2022-08-24T05:42:04;30.58;;;25.58;;
59659;SDS011;45534;52.690;6.268;2022-08-24T05:44:30;31.02;;;26.70;;
59659;SDS011;45534;52.690;6.268;2022-08-24T05:46:56;33.97;;;28.92;;
59659;SDS011;45534;52.690;6.268;2022-08-24T05:49:23;80.18;;;72.63;;
59659;SDS011;45534;52.690;6.268;2022-08-24T05:51:50;90.63;;;82.85;;
59659;SDS011;45534;52.690;6.268;2022-08-24T05:54:16;95.57;;;87.63;;
59659;SDS011;45534;52.690;6.268;2022-08-24T05:56:43;87.30;;;80.28;;
59659;SDS011;45534;52.690;6.268;2022-08-24T05:59:09;37.28;;;30.23;;
59659;SDS011;45534;52.690;6.268;2022-08-24T06:01:36;42.58;;;30.08;;
59659;SDS011;45534;52.690;6.268;2022-08-24T06:04:02;37.95;;;30.95;;
59659;SDS011;45534;52.690;6.268;2022-08-24T06:06:29;37.28;;;26.88;;
59659;SDS011;45534;52.690;6.268;2022-08-24T06:08:56;88.38;;;81.25;;
59659;SDS011;45534;52.690;6.268;2022-08-24T06:11:24;93.95;;;85.97;;
59659;SDS011;45534;52.690;6.268;2022-08-24T06:16:22;91.80;;;84.45;;
59659;SDS011;45534;52.690;6.268;2022-08-24T06:18:48;41.70;;;34.08;;
59659;SDS011;45534;52.690;6.268;2022-08-24T06:21:16;43.00;;;30.13;;
59659;SDS011;45534;52.690;6.268;2022-08-24T06:23:44;41.85;;;35.55;;
59659;SDS011;45534;52.690;6.268;2022-08-24T06:26:13;44.85;;;32.90;;
59659;SDS011;45534;52.690;6.268;2022-08-24T06:28:57;46.45;;;34.95;;
59659;SDS011;45534;52.690;6.268;2022-08-24T06:31:24;41.03;;;34.00;;
59659;SDS011;45534;52.690;6.268;2022-08-24T06:33:51;40.95;;;33.08;;
59659;SDS011;45534;52.690;6.268;2022-08-24T06:36:17;45.20;;;31.63;;
59659;SDS011;45534;52.690;6.268;2022-08-24T06:38:43;90.97;;;82.78;;
59659;SDS011;45534;52.690;6.268;2022-08-24T06:41:09;91.75;;;83.47;;
59659;SDS011;45534;52.690;6.268;2022-08-24T06:43:35;90.72;;;82.78;;
59659;SDS011;45534;52.690;6.268;2022-08-24T06:46:01;83.78;;;76.43;;
59659;SDS011;45534;52.690;6.268;2022-08-24T06:48:27;85.50;;;77.45;;
59659;SDS011;45534;52.690;6.268;2022-08-24T06:50:54;37.90;;;29.67;;
59659;SDS011;45534;52.690;6.268;2022-08-24T06:53:20;38.47;;;29.75;;
59659;SDS011;45534;52.690;6.268;2022-08-24T06:55:50;40.53;;;29.75;;
59659;SDS011;45534;52.690;6.268;2022-08-24T06:58:21;85.38;;;78.15;;
59659;SDS011;45534;52.690;6.268;2022-08-24T07:00:49;81.03;;;74.32;;
59659;SDS011;45534;52.690;6.268;2022-08-24T07:03:15;79.78;;;73.30;;
59659;SDS011;45534;52.690;6.268;2022-08-24T07:08:18;77.38;;;70.95;;
59659;SDS011;45534;52.690;6.268;2022-08-24T07:10:45;77.82;;;71.25;;
59659;SDS011;45534;52.690;6.268;2022-08-24T07:13:11;69.63;;;63.75;;
59659;SDS011;45534;52.690;6.268;2022-08-24T07:15:39;67.55;;;61.13;;
59659;SDS011;45534;52.690;6.268;2022-08-24T07:18:05;59.33;;;54.13;;
59659;SDS011;45534;52.690;6.268;2022-08-24T07:20:37;27.33;;;24.27;;
59659;SDS011;45534;52.690;6.268;2022-08-24T07:23:03;32.88;;;23.65;;
59659;SDS011;45534;52.690;6.268;2022-08-24T07:25:30;61.10;;;55.75;;
59659;SDS011;45534;52.690;6.268;2022-08-24T07:27:57;61.22;;;53.47;;
59659;SDS011;45534;52.690;6.268;2022-08-24T07:30:24;59.33;;;54.08;;
59659;SDS011;45534;52.690;6.268;2022-08-24T07:32:51;49.75;;;44.95;;
59659;SDS011;45534;52.690;6.268;2022-08-24T07:35:17;49.80;;;45.25;;
59659;SDS011;45534;52.690;6.268;2022-08-24T07:37:43;46.58;;;42.15;;
59659;SDS011;45534;52.690;6.268;2022-08-24T07:40:08;42.88;;;39.20;;
59659;SDS011;45534;52.690;6.268;2022-08-24T07:42:35;40.05;;;36.53;;
59659;SDS011;45534;52.690;6.268;2022-08-24T07:45:01;38.80;;;35.35;;
59659;SDS011;45534;52.690;6.268;2022-08-24T07:47:27;39.55;;;36.35;;
59659;SDS011;45534;52.690;6.268;2022-08-24T07:49:53;38.42;;;34.97;;
59659;SDS011;45534;52.690;6.268;2022-08-24T07:52:19;35.42;;;31.95;;
59659;SDS011;45534;52.690;6.268;2022-08-24T07:54:44;32.97;;;28.73;;
59659;SDS011;45534;52.690;6.268;2022-08-24T07:57:10;33.58;;;30.27;;
59659;SDS011;45534;52.690;6.268;2022-08-24T07:59:36;29.50;;;26.58;;
59659;SDS011;45534;52.690;6.268;2022-08-24T08:02:02;28.90;;;26.15;;
59659;SDS011;45534;52.690;6.268;2022-08-24T08:04:29;32.22;;;29.25;;
59659;SDS011;45534;52.690;6.268;2022-08-24T08:06:55;29.38;;;26.42;;
59659;SDS011;45534;52.690;6.268;2022-08-24T08:09:21;27.38;;;24.40;;
59659;SDS011;45534;52.690;6.268;2022-08-24T08:11:47;28.25;;;25.45;;
59659;SDS011;45534;52.690;6.268;2022-08-24T08:14:13;25.70;;;22.42;;
59659;SDS011;45534;52.690;6.268;2022-08-24T08:16:39;30.42;;;23.58;;
59659;SDS011;45534;52.690;6.268;2022-08-24T08:19:05;27.65;;;24.95;;
59659;SDS011;45534;52.690;6.268;2022-08-24T08:21:31;28.35;;;25.33;;
59659;SDS011;45534;52.690;6.268;2022-08-24T08:24:15;25.55;;;21.10;;
59659;SDS011;45534;52.690;6.268;2022-08-24T08:26:45;23.88;;;20.65;;
59659;SDS011;45534;52.690;6.268;2022-08-24T08:29:14;30.58;;;24.23;;
59659;SDS011;45534;52.690;6.268;2022-08-24T08:31:42;27.23;;;19.80;;
59659;SDS011;45534;52.690;6.268;2022-08-24T08:34:08;23.75;;;19.58;;
59659;SDS011;45534;52.690;6.268;2022-08-24T08:36:34;22.45;;;20.05;;
59659;SDS011;45534;52.690;6.268;2022-08-24T08:39:04;21.00;;;19.25;;
59659;SDS011;45534;52.690;6.268;2022-08-24T08:41:47;21.77;;;19.52;;
59659;SDS011;45534;52.690;6.268;2022-08-24T08:47:16;19.92;;;16.17;;
59659;SDS011;45534;52.690;6.268;2022-08-24T08:55:29;17.50;;;15.15;;
59659;SDS011;45534;52.690;6.268;2022-08-24T09:17:45;17.42;;;13.30;;
59659;SDS011;45534;52.690;6.268;2022-08-24T09:23:16;14.98;;;10.77;;
59659;SDS011;45534;52.690;6.268;2022-08-24T09:25:57;17.38;;;11.98;;
59659;SDS011;45534;52.690;6.268;2022-08-24T09:31:36;22.30;;;12.68;;
59659;SDS011;45534;52.690;6.268;2022-08-24T09:36:54;9.43;;;8.00;;
59659;SDS011;45534;52.690;6.268;2022-08-24T09:42:23;11.77;;;8.38;;
59659;SDS011;45534;52.690;6.268;2022-08-24T09:53:29;7.70;;;6.93;;
59659;SDS011;45534;52.690;6.268;2022-08-24T10:08:02;12.80;;;6.63;;
59659;SDS011;45534;52.690;6.268;2022-08-24T10:10:34;10.43;;;7.22;;
59659;SDS011;45534;52.690;6.268;2022-08-24T10:18:54;10.73;;;6.10;;
59659;SDS011;45534;52.690;6.268;2022-08-24T10:21:57;8.17;;;5.90;;
59659;SDS011;45534;52.690;6.268;2022-08-24T10:24:52;7.03;;;4.30;;
59659;SDS011;45534;52.690;6.268;2022-08-24T10:27:44;10.77;;;6.22;;
59659;SDS011;45534;52.690;6.268;2022-08-24T10:33:17;7.70;;;5.03;;
59659;SDS011;45534;52.690;6.268;2022-08-24T10:53:51;5.97;;;3.67;;
59659;SDS011;45534;52.690;6.268;2022-08-24T10:56:28;8.48;;;4.28;;
59659;SDS011;45534;52.690;6.268;2022-08-24T11:04:46;6.72;;;4.35;;
59659;SDS011;45534;52.690;6.268;2022-08-24T11:07:21;9.98;;;4.60;;
59659;SDS011;45534;52.690;6.268;2022-08-24T11:09:56;4.53;;;3.28;;
59659;SDS011;45534;52.690;6.268;2022-08-24T11:12:26;6.03;;;3.75;;
59659;SDS011;45534;52.690;6.268;2022-08-24T11:14:53;4.65;;;3.00;;
59659;SDS011;45534;52.690;6.268;2022-08-24T11:17:22;4.25;;;3.28;;
59659;SDS011;45534;52.690;6.268;2022-08-24T11:19:50;9.02;;;2.88;;
59659;SDS011;45534;52.690;6.268;2022-08-24T11:25:30;6.03;;;2.85;;
59659;SDS011;45534;52.690;6.268;2022-08-24T11:28:11;4.35;;;2.90;;
59659;SDS011;45534;52.690;6.268;2022-08-24T11:30:47;4.85;;;2.90;;
59659;SDS011;45534;52.690;6.268;2022-08-24T11:33:30;3.53;;;2.30;;
59659;SDS011;45534;52.690;6.268;2022-08-24T11:35:59;3.15;;;1.75;;
59659;SDS011;45534;52.690;6.268;2022-08-24T11:38:30;2.03;;;1.88;;
59659;SDS011;45534;52.690;6.268;2022-08-24T11:49:08;4.45;;;3.28;;
59659;SDS011;45534;52.690;6.268;2022-08-24T12:00:09;3.72;;;2.88;;
59659;SDS011;45534;52.690;6.268;2022-08-24T12:06:00;6.63;;;2.85;;
59659;SDS011;45534;52.690;6.268;2022-08-24T12:08:49;6.40;;;3.08;;
59659;SDS011;45534;52.690;6.268;2022-08-24T12:11:34;4.72;;;2.63;;
59659;SDS011;45534;52.690;6.268;2022-08-24T12:14:09;4.53;;;3.58;;
59659;SDS011;45534;52.690;6.268;2022-08-24T12:16:53;4.22;;;3.05;;
59659;SDS011;45534;52.690;6.268;2022-08-24T12:21:58;3.38;;;2.75;;
59659;SDS011;45534;52.690;6.268;2022-08-24T12:27:17;4.85;;;3.42;;
59659;SDS011;45534;52.690;6.268;2022-08-24T12:29:51;4.15;;;2.50;;
59659;SDS011;45534;52.690;6.268;2022-08-24T12:32:29;6.03;;;3.40;;
59659;SDS011;45534;52.690;6.268;2022-08-24T12:37:41;5.90;;;2.30;;
59659;SDS011;45534;52.690;6.268;2022-08-24T12:46:03;5.22;;;2.75;;
59659;SDS011;45534;52.690;6.268;2022-08-24T12:48:44;2.38;;;2.17;;
59659;SDS011;45534;52.690;6.268;2022-08-24T12:53:45;2.97;;;2.22;;
59659;SDS011;45534;52.690;6.268;2022-08-24T13:17:47;3.08;;;2.50;;
59659;SDS011;45534;52.690;6.268;2022-08-24T13:20:19;3.13;;;2.33;;
59659;SDS011;45534;52.690;6.268;2022-08-24T13:23:03;3.20;;;2.38;;
59659;SDS011;45534;52.690;6.268;2022-08-24T13:33:41;3.28;;;2.35;;
59659;SDS011;45534;52.690;6.268;2022-08-24T13:47:14;2.35;;;2.25;;
59659;SDS011;45534;52.690;6.268;2022-08-24T13:55:45;3.05;;;2.80;;
59659;SDS011;45534;52.690;6.268;2022-08-24T14:21:19;3.90;;;2.20;;
59659;SDS011;45534;52.690;6.268;2022-08-24T14:23:46;2.20;;;2.00;;
59659;SDS011;45534;52.690;6.268;2022-08-24T14:42:17;5.30;;;2.28;;
59659;SDS011;45534;52.690;6.268;2022-08-24T14:50:13;4.78;;;2.65;;
59659;SDS011;45534;52.690;6.268;2022-08-24T15:01:11;2.75;;;2.55;;
59659;SDS011;45534;52.690;6.268;2022-08-24T15:03:40;4.68;;;2.38;;
59659;SDS011;45534;52.690;6.268;2022-08-24T15:09:24;2.85;;;2.55;;
59659;SDS011;45534;52.690;6.268;2022-08-24T15:11:53;6.60;;;2.80;;
59659;SDS011;45534;52.690;6.268;2022-08-24T15:14:39;4.03;;;2.25;;
59659;SDS011;45534;52.690;6.268;2022-08-24T15:17:12;2.60;;;2.30;;
59659;SDS011;45534;52.690;6.268;2022-08-24T15:22:18;3.30;;;2.40;;
59659;SDS011;45534;52.690;6.268;2022-08-24T15:27:44;2.97;;;2.75;;
59659;SDS011;45534;52.690;6.268;2022-08-24T15:30:25;4.05;;;2.22;;
59659;SDS011;45534;52.690;6.268;2022-08-24T15:35:35;3.80;;;2.42;;
59659;SDS011;45534;52.690;6.268;2022-08-24T15:40:48;3.78;;;2.33;;
59659;SDS011;45534;52.690;6.268;2022-08-24T15:43:17;2.55;;;2.35;;
59659;SDS011;45534;52.690;6.268;2022-08-24T15:45:45;3.80;;;2.40;;
59659;SDS011;45534;52.690;6.268;2022-08-24T15:48:13;7.10;;;2.80;;
59659;SDS011;45534;52.690;6.268;2022-08-24T15:50:44;2.10;;;2.00;;
59659;SDS011;45534;52.690;6.268;2022-08-24T15:53:25;4.15;;;2.90;;
59659;SDS011;45534;52.690;6.268;2022-08-24T15:55:55;3.15;;;2.42;;
59659;SDS011;45534;52.690;6.268;2022-08-24T16:04:02;2.65;;;2.25;;
59659;SDS011;45534;52.690;6.268;2022-08-24T16:08:57;2.55;;;2.33;;
59659;SDS011;45534;52.690;6.268;2022-08-24T16:11:43;4.13;;;2.40;;
59659;SDS011;45534;52.690;6.268;2022-08-24T16:14:28;4.50;;;2.80;;
59659;SDS011;45534;52.690;6.268;2022-08-24T16:19:58;2.85;;;2.60;;
59659;SDS011;45534;52.690;6.268;2022-08-24T16:22:31;4.82;;;2.38;;
59659;SDS011;45534;52.690;6.268;2022-08-24T16:25:34;4.03;;;2.85;;
59659;SDS011;45534;52.690;6.268;2022-08-24T16:36:07;7.85;;;2.85;;
59659;SDS011;45534;52.690;6.268;2022-08-24T16:38:35;6.97;;;3.22;;
59659;SDS011;45534;52.690;6.268;2022-08-24T16:41:04;14.50;;;2.88;;
59659;SDS011;45534;52.690;6.268;2022-08-24T16:43:33;4.82;;;3.10;;
59659;SDS011;45534;52.690;6.268;2022-08-24T16:46:01;7.15;;;2.83;;
59659;SDS011;45534;52.690;6.268;2022-08-24T16:48:30;6.85;;;2.70;;
59659;SDS011;45534;52.690;6.268;2022-08-24T16:50:56;8.07;;;2.90;;
59659;SDS011;45534;52.690;6.268;2022-08-24T16:53:22;5.22;;;3.00;;
59659;SDS011;45534;52.690;6.268;2022-08-24T16:55:49;5.47;;;3.15;;
59659;SDS011;45534;52.690;6.268;2022-08-24T16:58:16;7.18;;;2.92;;
59659;SDS011;45534;52.690;6.268;2022-08-24T17:00:42;3.88;;;3.08;;
59659;SDS011;45534;52.690;6.268;2022-08-24T17:03:10;4.70;;;2.58;;
59659;SDS011;45534;52.690;6.268;2022-08-24T17:05:36;5.30;;;2.42;;
59659;SDS011;45534;52.690;6.268;2022-08-24T17:08:03;2.85;;;2.65;;
59659;SDS011;45534;52.690;6.268;2022-08-24T17:10:29;2.75;;;2.47;;
59659;SDS011;45534;52.690;6.268;2022-08-24T17:12:55;3.60;;;2.10;;
59659;SDS011;45534;52.690;6.268;2022-08-24T17:15:22;3.72;;;2.95;;
59659;SDS011;45534;52.690;6.268;2022-08-24T17:17:57;4.28;;;3.10;;
59659;SDS011;45534;52.690;6.268;2022-08-24T17:20:26;2.60;;;2.10;;
59659;SDS011;45534;52.690;6.268;2022-08-24T17:22:53;6.10;;;2.83;;
59659;SDS011;45534;52.690;6.268;2022-08-24T17:25:20;3.78;;;2.55;;
59659;SDS011;45534;52.690;6.268;2022-08-24T17:27:46;19.98;;;3.65;;
59659;SDS011;45534;52.690;6.268;2022-08-24T17:30:12;4.50;;;2.60;;
59659;SDS011;45534;52.690;6.268;2022-08-24T17:32:41;4.38;;;2.90;;
59659;SDS011;45534;52.690;6.268;2022-08-24T17:35:07;6.38;;;2.70;;
59659;SDS011;45534;52.690;6.268;2022-08-24T17:37:33;7.45;;;3.35;;
59659;SDS011;45534;52.690;6.268;2022-08-24T17:39:59;2.58;;;2.38;;
59659;SDS011;45534;52.690;6.268;2022-08-24T17:42:25;10.27;;;3.47;;
59659;SDS011;45534;52.690;6.268;2022-08-24T17:44:51;7.47;;;3.47;;
59659;SDS011;45534;52.690;6.268;2022-08-24T17:47:16;9.18;;;2.70;;
59659;SDS011;45534;52.690;6.268;2022-08-24T17:49:43;4.28;;;2.85;;
59659;SDS011;45534;52.690;6.268;2022-08-24T17:52:09;8.15;;;2.97;;
59659;SDS011;45534;52.690;6.268;2022-08-24T17:54:34;2.95;;;2.75;;
59659;SDS011;45534;52.690;6.268;2022-08-24T17:57:00;2.92;;;2.40;;
59659;SDS011;45534;52.690;6.268;2022-08-24T17:59:33;3.60;;;2.85;;
59659;SDS011;45534;52.690;6.268;2022-08-24T18:02:00;6.57;;;3.28;;
59659;SDS011;45534;52.690;6.268;2022-08-24T18:04:28;3.22;;;2.30;;
59659;SDS011;45534;52.690;6.268;2022-08-24T18:06:59;10.40;;;3.13;;
59659;SDS011;45534;52.690;6.268;2022-08-24T18:12:00;4.78;;;2.67;;
59659;SDS011;45534;52.690;6.268;2022-08-24T18:14:27;3.53;;;2.65;;
59659;SDS011;45534;52.690;6.268;2022-08-24T18:16:54;3.90;;;2.80;;
59659;SDS011;45534;52.690;6.268;2022-08-24T18:19:21;6.88;;;2.97;;
59659;SDS011;45534;52.690;6.268;2022-08-24T18:21:48;3.58;;;2.88;;
59659;SDS011;45534;52.690;6.268;2022-08-24T18:24:14;3.92;;;3.17;;
59659;SDS011;45534;52.690;6.268;2022-08-24T18:26:40;5.65;;;3.38;;
59659;SDS011;45534;52.690;6.268;2022-08-24T18:29:12;4.13;;;3.22;;
59659;SDS011;45534;52.690;6.268;2022-08-24T18:31:40;4.45;;;3.35;;
59659;SDS011;45534;52.690;6.268;2022-08-24T18:34:07;8.95;;;3.67;;
59659;SDS011;45534;52.690;6.268;2022-08-24T18:36:37;5.65;;;3.47;;
59659;SDS011;45534;52.690;6.268;2022-08-24T18:39:02;5.18;;;3.78;;
59659;SDS011;45534;52.690;6.268;2022-08-24T18:41:31;7.82;;;3.83;;
59659;SDS011;45534;52.690;6.268;2022-08-24T18:44:00;4.43;;;4.03;;
59659;SDS011;45534;52.690;6.268;2022-08-24T18:46:28;6.10;;;3.83;;
59659;SDS011;45534;52.690;6.268;2022-08-24T18:48:55;5.10;;;3.67;;
59659;SDS011;45534;52.690;6.268;2022-08-24T18:51:24;8.77;;;3.97;;
59659;SDS011;45534;52.690;6.268;2022-08-24T18:53:52;10.60;;;4.18;;
59659;SDS011;45534;52.690;6.268;2022-08-24T18:56:34;7.57;;;4.25;;
59659;SDS011;45534;52.690;6.268;2022-08-24T18:59:00;7.03;;;4.05;;
59659;SDS011;45534;52.690;6.268;2022-08-24T19:01:26;6.30;;;4.47;;
59659;SDS011;45534;52.690;6.268;2022-08-24T19:03:53;7.90;;;4.45;;
59659;SDS011;45534;52.690;6.268;2022-08-24T19:06:19;7.28;;;5.07;;
59659;SDS011;45534;52.690;6.268;2022-08-24T19:08:46;13.32;;;5.78;;
59659;SDS011;45534;52.690;6.268;2022-08-24T19:11:12;15.75;;;6.55;;
59659;SDS011;45534;52.690;6.268;2022-08-24T19:13:41;8.18;;;5.38;;
59659;SDS011;45534;52.690;6.268;2022-08-24T19:16:08;9.25;;;5.60;;
59659;SDS011;45534;52.690;6.268;2022-08-24T19:18:33;6.50;;;5.13;;
59659;SDS011;45534;52.690;6.268;2022-08-24T19:20:59;7.82;;;5.90;;